Aviation Digital Data Service (ADDS)

Output produced by METARs form (0317 UTC 25 February 2021)
found at http://www.aviationweather.gov/metar/data/
 
KMIV 250254Z AUTO 20005KT 10SM CLR 08/04 A2983 RMK AO2 SLP100 T00830039 56016
KMIV 242320Z 2500/2524 18008KT P6SM SCT250 WS020/22045KT 
     FM250300 22008KT P6SM SCT150 WS020/24045KT 
     FM250600 25008KT P6SM SCT100 
     FM250900 31008KT P6SM SCT250 
     FM251400 31010G18KT P6SM SCT250 
     FM252000 31010KT P6SM SKC